createdAt,value
2018-08-08T00:00:27.986Z,16.42
2018-08-08T00:02:56.501Z,16.35
2018-08-08T00:05:24.853Z,16.37
2018-08-08T00:07:53.010Z,16.37
2018-08-08T00:10:21.277Z,16.38
2018-08-08T00:12:49.412Z,16.42
2018-08-08T00:15:17.668Z,16.44
2018-08-08T00:17:46.301Z,16.45
2018-08-08T00:20:14.931Z,16.46
2018-08-08T00:22:43.074Z,16.62
2018-08-08T00:25:13.113Z,16.55
2018-08-08T00:27:41.689Z,16.57
2018-08-08T00:30:10.789Z,16.53
2018-08-08T00:32:39.032Z,16.46
2018-08-08T00:35:07.167Z,16.39
2018-08-08T00:37:36.173Z,16.42
2018-08-08T00:40:06.443Z,16.46
2018-08-08T00:42:34.539Z,16.61
2018-08-08T00:45:02.765Z,16.61
2018-08-08T00:47:30.952Z,16.55
2018-08-08T00:49:59.091Z,16.54
2018-08-08T00:52:27.171Z,16.51
2018-08-08T00:54:55.290Z,16.59
2018-08-08T00:57:23.391Z,16.58
2018-08-08T00:59:51.447Z,16.49
2018-08-08T01:02:19.507Z,16.49
2018-08-08T01:04:47.604Z,16.48
2018-08-08T01:07:15.842Z,16.44
2018-08-08T01:09:43.950Z,16.40
2018-08-08T01:12:12.198Z,16.38
2018-08-08T01:14:40.412Z,16.45
2018-08-08T01:17:08.553Z,16.38
2018-08-08T01:19:36.631Z,16.27
2018-08-08T01:22:04.941Z,16.17
2018-08-08T01:24:33.173Z,16.10
2018-08-08T01:27:01.290Z,16.06
2018-08-08T01:29:29.540Z,15.99
2018-08-08T01:31:57.566Z,15.98
2018-08-08T01:34:25.797Z,16.03
2018-08-08T01:36:53.888Z,15.92
2018-08-08T01:39:21.947Z,15.83
2018-08-08T01:41:50.184Z,15.81
2018-08-08T01:44:18.348Z,15.78
2018-08-08T01:46:46.415Z,15.80
2018-08-08T01:49:14.491Z,15.74
2018-08-08T01:51:42.588Z,15.70
2018-08-08T01:54:10.659Z,15.72
2018-08-08T01:56:38.811Z,15.62
2018-08-08T01:59:06.975Z,15.68
2018-08-08T02:01:34.992Z,15.68
2018-08-08T02:04:03.188Z,15.59
2018-08-08T02:06:31.214Z,15.62
2018-08-08T02:08:59.334Z,15.65
2018-08-08T02:11:27.407Z,15.61
2018-08-08T02:13:55.489Z,15.55
2018-08-08T02:16:23.719Z,15.52
2018-08-08T02:18:51.823Z,15.53
2018-08-08T02:21:19.974Z,15.53
2018-08-08T02:23:48.141Z,15.52
2018-08-08T02:26:16.195Z,15.49
2018-08-08T02:28:44.329Z,15.46
2018-08-08T02:31:12.427Z,15.41
2018-08-08T02:33:40.979Z,15.41
2018-08-08T02:36:09.335Z,15.45
2018-08-08T02:38:37.652Z,15.42
2018-08-08T02:41:06.249Z,15.42
2018-08-08T02:43:34.341Z,15.36
2018-08-08T02:46:03.565Z,15.42
2018-08-08T02:48:32.112Z,15.27
2018-08-08T02:51:00.187Z,15.27
2018-08-08T02:53:28.417Z,15.22
2018-08-08T02:55:56.686Z,15.27
2018-08-08T02:58:24.853Z,15.25
2018-08-08T03:00:52.989Z,15.12
2018-08-08T03:03:21.118Z,15.13
2018-08-08T03:05:49.366Z,14.99
2018-08-08T03:08:17.569Z,14.90
2018-08-08T03:10:45.867Z,14.97
2018-08-08T03:13:14.043Z,14.95
2018-08-08T03:15:43.148Z,14.91
2018-08-08T03:18:11.209Z,14.92
2018-08-08T03:20:39.450Z,14.97
2018-08-08T03:23:07.578Z,14.93
2018-08-08T03:25:36.758Z,14.97
2018-08-08T03:28:05.133Z,14.99
2018-08-08T03:30:33.268Z,14.97
2018-08-08T03:33:01.430Z,14.95
2018-08-08T03:35:29.996Z,15.00
2018-08-08T03:37:58.156Z,15.03
2018-08-08T03:40:26.244Z,15.00
2018-08-08T03:42:54.381Z,15.08
2018-08-08T03:45:22.701Z,15.36
2018-08-08T03:47:50.872Z,15.57
2018-08-08T03:50:18.977Z,16.27
2018-08-08T03:52:47.206Z,16.86
2018-08-08T03:55:15.477Z,17.37
2018-08-08T03:57:43.764Z,17.75
2018-08-08T04:00:16.485Z,18.24
2018-08-08T04:02:44.988Z,18.60
2018-08-08T04:05:13.377Z,18.92
2018-08-08T04:07:41.708Z,19.29
2018-08-08T04:10:10.486Z,20.17
2018-08-08T04:12:40.473Z,20.29
2018-08-08T04:15:12.035Z,20.12
2018-08-08T04:17:40.360Z,20.66
2018-08-08T04:20:09.231Z,20.79
2018-08-08T04:22:37.590Z,20.90
2018-08-08T04:25:07.811Z,21.34
2018-08-08T04:27:36.389Z,21.32
2018-08-08T04:30:09.178Z,21.00
2018-08-08T04:32:37.896Z,21.25
2018-08-08T04:35:06.810Z,21.21
2018-08-08T04:37:35.392Z,21.23
2018-08-08T04:40:05.196Z,20.93
2018-08-08T04:42:33.659Z,20.89
2018-08-08T04:45:02.182Z,20.54
2018-08-08T04:47:30.708Z,20.37
2018-08-08T04:49:59.164Z,20.85
2018-08-08T04:52:27.575Z,20.70
2018-08-08T04:54:56.039Z,20.37
2018-08-08T04:57:24.467Z,20.80
2018-08-08T04:59:52.733Z,21.09
2018-08-08T05:02:20.871Z,21.26
2018-08-08T05:04:49.115Z,21.66
2018-08-08T05:07:17.904Z,21.79
2018-08-08T05:09:46.300Z,21.83
2018-08-08T05:12:14.721Z,21.54
2018-08-08T05:14:43.043Z,21.32
2018-08-08T05:17:11.802Z,21.19
2018-08-08T05:19:40.249Z,21.35
2018-08-08T05:22:08.438Z,21.91
2018-08-08T05:24:36.866Z,21.84
2018-08-08T05:27:05.107Z,21.59
2018-08-08T05:29:33.384Z,21.90
2018-08-08T05:32:03.234Z,22.10
2018-08-08T05:34:35.621Z,22.25
2018-08-08T05:37:04.506Z,22.32
2018-08-08T05:39:32.870Z,22.42
2018-08-08T05:42:01.440Z,22.44
2018-08-08T05:44:31.545Z,22.58
2018-08-08T05:47:00.353Z,23.12
2018-08-08T05:49:29.391Z,22.92
2018-08-08T05:51:58.382Z,23.24
2018-08-08T05:54:28.514Z,23.16
2018-08-08T05:56:57.220Z,23.22
2018-08-08T05:59:26.667Z,23.28
2018-08-08T06:01:56.593Z,23.52
2018-08-08T06:04:27.270Z,23.40
2018-08-08T06:06:58.944Z,24.05
2018-08-08T06:09:27.767Z,24.21
2018-08-08T06:11:56.618Z,23.97
2018-08-08T06:14:25.228Z,24.13
2018-08-08T06:16:54.353Z,24.24
2018-08-08T06:19:23.753Z,24.41
2018-08-08T06:21:56.645Z,24.23
2018-08-08T06:24:29.740Z,23.94
2018-08-08T06:27:00.637Z,23.95
2018-08-08T06:29:30.745Z,24.01
2018-08-08T06:31:59.916Z,24.08
2018-08-08T06:34:29.525Z,24.64
2018-08-08T06:37:00.111Z,24.45
2018-08-08T06:39:28.575Z,24.68
2018-08-08T06:41:57.494Z,25.19
2018-08-08T06:44:26.596Z,25.54
2018-08-08T06:46:56.141Z,25.96
2018-08-08T06:49:25.121Z,25.84
2018-08-08T06:51:54.480Z,26.21
2018-08-08T06:54:23.459Z,26.15
2018-08-08T06:56:52.729Z,26.28
2018-08-08T06:59:21.414Z,25.90
2018-08-08T07:01:53.923Z,26.32
2018-08-08T07:04:23.018Z,26.61
2018-08-08T07:06:52.879Z,26.49
2018-08-08T07:09:22.198Z,26.30
2018-08-08T07:11:51.029Z,26.84
2018-08-08T11:25:53.556Z,32.46
2018-08-08T11:28:22.463Z,32.82
2018-08-08T11:30:54.403Z,32.17
2018-08-08T11:33:24.611Z,32.08
2018-08-08T11:35:57.001Z,32.07
2018-08-08T11:38:33.153Z,31.63
2018-08-08T11:41:04.361Z,32.48
2018-08-08T11:43:36.387Z,32.98
2018-08-08T11:46:06.030Z,32.44
2018-08-08T11:48:34.826Z,31.84
2018-08-08T11:51:06.065Z,30.68
2018-08-08T11:53:37.145Z,30.23
2018-08-08T11:56:10.782Z,29.97
2018-08-08T11:58:39.883Z,30.17
2018-08-08T12:01:09.166Z,30.15
2018-08-08T12:03:38.241Z,30.45
2018-08-08T12:06:07.236Z,31.45
2018-08-08T12:08:36.031Z,32.02
2018-08-08T12:11:04.763Z,31.94
2018-08-08T12:13:33.207Z,32.18
2018-08-08T12:16:02.336Z,32.09
2018-08-08T12:18:31.458Z,31.80
2018-08-08T12:21:00.656Z,31.89
2018-08-08T12:23:31.482Z,32.33
2018-08-08T12:26:00.219Z,31.70
2018-08-08T12:28:29.383Z,31.66
2018-08-08T12:30:58.013Z,31.40
2018-08-08T12:33:28.011Z,31.37
2018-08-08T12:35:56.637Z,31.56
2018-08-08T12:38:25.719Z,31.91
2018-08-08T12:40:54.414Z,31.45
2018-08-08T12:43:22.840Z,31.06
2018-08-08T12:45:51.818Z,30.62
2018-08-08T12:48:22.221Z,30.01
2018-08-08T12:50:52.664Z,29.51
2018-08-08T12:53:21.331Z,29.13
2018-08-08T12:55:49.803Z,29.04
2018-08-08T12:58:18.885Z,29.17
2018-08-08T13:00:47.794Z,29.22
2018-08-08T13:03:18.172Z,29.08
2018-08-08T13:05:49.035Z,29.11
2018-08-08T13:08:20.181Z,28.98
2018-08-08T13:10:49.065Z,28.96
2018-08-08T13:13:18.276Z,28.95
2018-08-08T13:15:50.211Z,28.98
2018-08-08T13:18:19.584Z,28.53
2018-08-08T13:20:51.503Z,27.89
2018-08-08T13:23:24.373Z,26.86
2018-08-08T13:25:54.414Z,25.92
2018-08-08T13:28:24.386Z,25.95
2018-08-08T13:30:53.420Z,26.15
2018-08-08T13:33:22.063Z,26.18
2018-08-08T13:35:52.725Z,26.22
2018-08-08T13:38:21.625Z,26.39
2018-08-08T13:40:51.530Z,26.35
2018-08-08T13:43:23.069Z,26.33
2018-08-08T13:45:57.414Z,26.41
2018-08-08T13:48:27.654Z,26.47
2018-08-08T13:50:58.223Z,26.63
2018-08-08T13:53:27.536Z,26.71
2018-08-08T13:55:56.596Z,26.81
2018-08-08T13:58:25.361Z,26.88
2018-08-08T14:00:53.771Z,26.96
2018-08-08T14:03:22.437Z,27.12
2018-08-08T14:05:54.279Z,27.22
2018-08-08T14:08:23.038Z,27.59
2018-08-08T14:10:57.453Z,27.78
2018-08-08T14:13:29.985Z,27.69
2018-08-08T14:16:00.853Z,27.80
2018-08-08T14:18:34.066Z,27.77
2018-08-08T14:21:02.419Z,27.71
2018-08-08T14:23:30.826Z,27.73
2018-08-08T14:26:02.635Z,27.87
2018-08-08T14:28:32.592Z,27.64
2018-08-08T14:31:05.802Z,27.83
2018-08-08T14:33:36.511Z,27.91
2018-08-08T14:36:06.692Z,27.93
2018-08-08T14:38:38.300Z,27.89
2018-08-08T14:41:11.635Z,27.85
2018-08-08T14:43:42.117Z,27.91
2018-08-08T14:46:11.949Z,27.81
2018-08-08T14:48:40.419Z,27.85
2018-08-08T14:51:09.678Z,27.80
2018-08-08T14:53:38.361Z,27.84
2018-08-08T14:56:07.685Z,27.74
2018-08-08T14:58:36.720Z,27.71
2018-08-08T15:01:05.372Z,27.74
2018-08-08T15:03:33.669Z,27.70
2018-08-08T15:06:02.988Z,27.71
2018-08-08T15:08:31.214Z,27.73
2018-08-08T15:10:59.823Z,27.70
2018-08-08T15:13:31.974Z,27.70
2018-08-08T15:16:01.367Z,27.71
2018-08-08T15:18:30.342Z,27.68
2018-08-08T15:20:58.930Z,27.69
2018-08-08T15:23:27.674Z,27.72
2018-08-08T15:25:56.430Z,27.64
2018-08-08T15:28:25.085Z,27.61
2018-08-08T15:30:53.730Z,27.63
2018-08-08T15:33:23.376Z,27.62
2018-08-08T15:35:52.988Z,27.60
2018-08-08T15:38:21.505Z,27.60
2018-08-08T15:40:50.007Z,27.50
2018-08-08T15:43:18.827Z,27.55
2018-08-08T15:45:47.376Z,27.49
2018-08-08T15:48:19.263Z,27.53
2018-08-08T15:50:48.008Z,27.43
2018-08-08T15:53:16.660Z,27.24
2018-08-08T15:55:46.064Z,27.26
2018-08-08T15:58:15.394Z,27.19
2018-08-08T16:00:44.468Z,27.21
2018-08-08T16:03:12.819Z,27.05
2018-08-08T16:05:41.346Z,26.92
2018-08-08T16:08:09.737Z,26.94
2018-08-08T16:10:38.033Z,26.96
2018-08-08T16:13:06.390Z,26.94
2018-08-08T16:15:35.038Z,26.77
2018-08-08T16:18:03.672Z,26.66
2018-08-08T16:20:33.477Z,26.71
2018-08-08T16:23:02.168Z,26.44
2018-08-08T16:25:30.444Z,26.30
2018-08-08T16:27:58.928Z,26.18
2018-08-08T16:30:27.345Z,26.10
2018-08-08T16:32:55.587Z,26.17
2018-08-08T16:35:23.877Z,26.23
2018-08-08T16:37:52.281Z,26.07
2018-08-08T16:40:20.693Z,25.94
2018-08-08T16:42:48.901Z,26.01
2018-08-08T16:45:17.169Z,25.94
2018-08-08T16:47:45.706Z,25.79
2018-08-08T16:50:14.057Z,25.45
2018-08-08T16:52:42.445Z,25.28
2018-08-08T16:55:10.771Z,25.15
2018-08-08T16:57:39.168Z,24.96
2018-08-08T17:00:11.209Z,24.77
2018-08-08T17:02:39.918Z,24.78
2018-08-08T17:05:09.200Z,24.71
2018-08-08T17:07:37.737Z,24.61
2018-08-08T17:10:07.059Z,24.43
2018-08-08T17:12:35.783Z,24.50
2018-08-08T17:15:05.032Z,24.24
2018-08-08T17:17:33.542Z,24.22
2018-08-08T17:20:01.876Z,24.05
2018-08-08T17:22:30.361Z,23.80
2018-08-08T17:24:58.569Z,23.67
2018-08-08T17:27:26.838Z,23.59
2018-08-08T17:29:55.020Z,23.57
2018-08-08T17:32:23.431Z,23.37
2018-08-08T17:34:51.673Z,23.49
2018-08-08T17:37:25.263Z,23.25
2018-08-08T17:40:01.256Z,23.25
2018-08-08T17:42:30.110Z,23.09
2018-08-08T17:44:58.423Z,23.14
2018-08-08T17:47:29.308Z,23.19
2018-08-08T17:49:57.868Z,23.03
2018-08-08T17:52:26.141Z,23.10
2018-08-08T17:54:54.494Z,23.10
2018-08-08T17:57:23.178Z,23.27
2018-08-08T17:59:52.062Z,23.21
2018-08-08T18:02:20.897Z,22.97
2018-08-08T18:04:49.193Z,22.89
2018-08-08T18:07:17.569Z,22.76
2018-08-08T18:09:46.849Z,22.70
2018-08-08T18:12:15.774Z,22.60
2018-08-08T18:14:44.205Z,22.49
2018-08-08T18:17:12.852Z,22.46
2018-08-08T18:19:41.204Z,22.34
2018-08-08T18:22:11.926Z,22.14
2018-08-08T18:24:40.784Z,22.07
2018-08-08T18:27:09.433Z,21.96
2018-08-08T18:29:40.240Z,21.83
2018-08-08T18:32:08.582Z,21.72
2018-08-08T18:34:36.930Z,21.60
2018-08-08T18:37:05.501Z,21.56
2018-08-08T18:39:34.258Z,21.52
2018-08-08T18:42:02.600Z,21.33
2018-08-08T18:44:32.860Z,21.30
2018-08-08T18:47:01.121Z,21.26
2018-08-08T18:49:31.129Z,21.17
2018-08-08T18:51:59.940Z,20.91
2018-08-08T18:54:28.919Z,20.82
2018-08-08T18:56:57.683Z,20.76
2018-08-08T18:59:25.974Z,20.72
2018-08-08T19:01:54.312Z,20.64
2018-08-08T19:04:23.187Z,20.54
2018-08-08T19:06:51.616Z,20.47
2018-08-08T19:09:21.855Z,20.51
2018-08-08T19:11:50.654Z,20.42
2018-08-08T19:14:19.002Z,20.42
2018-08-08T19:16:47.538Z,20.39
2018-08-08T19:19:16.061Z,20.36
2018-08-08T19:21:47.200Z,20.34
2018-08-08T19:24:15.690Z,20.20
2018-08-08T19:26:44.334Z,20.16
2018-08-08T19:29:12.741Z,20.16
2018-08-08T19:31:41.195Z,20.11
2018-08-08T19:34:09.535Z,19.99
2018-08-08T19:36:37.821Z,19.95
2018-08-08T19:39:08.349Z,19.92
2018-08-08T19:41:36.781Z,19.83
2018-08-08T19:44:05.318Z,19.85
2018-08-08T19:46:33.629Z,19.76
2018-08-08T19:49:01.960Z,19.69
2018-08-08T19:51:30.259Z,19.67
2018-08-08T19:53:58.543Z,19.63
2018-08-08T19:56:26.874Z,19.65
2018-08-08T19:58:55.463Z,19.73
2018-08-08T20:01:23.793Z,19.65
2018-08-08T20:03:52.110Z,19.62
2018-08-08T20:06:20.369Z,19.59
2018-08-08T20:08:48.530Z,19.60
2018-08-08T20:11:16.883Z,19.69
2018-08-08T20:13:45.215Z,19.68
2018-08-08T20:16:13.439Z,19.65
2018-08-08T20:18:41.689Z,19.60
2018-08-08T20:21:09.788Z,19.59
2018-08-08T20:23:37.859Z,19.57
2018-08-08T20:26:06.098Z,19.56
2018-08-08T20:28:34.733Z,19.50
2018-08-08T20:31:02.909Z,19.45
2018-08-08T20:33:31.262Z,19.42
2018-08-08T20:35:59.410Z,19.48
2018-08-08T20:38:27.526Z,19.43
2018-08-08T20:40:55.762Z,19.44
2018-08-08T20:43:23.862Z,19.41
2018-08-08T20:45:52.074Z,19.37
2018-08-08T20:48:20.189Z,19.37
2018-08-08T20:50:48.366Z,19.29
2018-08-08T20:53:16.594Z,19.25
2018-08-08T20:55:44.811Z,19.21
2018-08-08T20:58:13.044Z,19.20
2018-08-08T21:00:41.323Z,19.16
2018-08-08T21:03:09.431Z,19.12
2018-08-08T21:05:37.888Z,19.09
2018-08-08T21:08:06.260Z,19.08
2018-08-08T21:10:34.460Z,19.07
2018-08-08T21:13:02.626Z,19.07
2018-08-08T21:15:30.860Z,19.01
2018-08-08T21:17:59.104Z,18.95
2018-08-08T21:20:27.241Z,18.92
2018-08-08T21:22:55.365Z,18.91
2018-08-08T21:25:23.473Z,18.87
2018-08-08T21:27:51.641Z,18.81
2018-08-08T21:30:19.886Z,18.79
2018-08-08T21:32:48.003Z,18.84
2018-08-08T21:35:16.203Z,18.81
2018-08-08T21:37:44.382Z,18.75
2018-08-08T21:40:12.636Z,18.73
2018-08-08T21:42:40.881Z,18.69
2018-08-08T21:45:09.161Z,18.67
2018-08-08T21:47:37.598Z,18.68
2018-08-08T21:50:07.755Z,18.63
2018-08-08T21:52:36.018Z,18.63
2018-08-08T21:56:16.935Z,18.58
2018-08-08T21:58:56.249Z,18.49
2018-08-08T22:01:35.404Z,18.44
2018-08-08T22:04:14.630Z,18.39
2018-08-08T22:06:53.889Z,18.34
2018-08-08T22:09:33.092Z,18.32
2018-08-08T22:12:12.112Z,18.32
2018-08-08T22:14:51.407Z,18.30
2018-08-08T22:17:30.611Z,18.32
2018-08-08T22:19:58.792Z,18.29
2018-08-08T22:22:26.924Z,18.22
2018-08-08T22:24:55.150Z,18.18
2018-08-08T22:27:23.328Z,18.14
2018-08-08T22:29:51.365Z,18.13
2018-08-08T22:32:19.465Z,18.09
2018-08-08T22:34:47.533Z,18.04
2018-08-08T22:37:15.747Z,18.06
2018-08-08T22:39:43.789Z,18.01
2018-08-08T22:42:11.793Z,18.03
2018-08-08T22:44:39.847Z,18.03
2018-08-08T22:47:07.998Z,17.97
2018-08-08T22:49:36.063Z,17.85
2018-08-08T22:52:04.303Z,17.89
2018-08-08T22:54:32.336Z,17.84
2018-08-08T22:57:00.376Z,17.87
2018-08-08T22:59:28.564Z,17.86
2018-08-08T23:01:56.610Z,17.80
2018-08-08T23:04:24.752Z,17.75
2018-08-08T23:06:52.770Z,17.79
2018-08-08T23:09:20.875Z,17.76
2018-08-08T23:11:49.008Z,17.72
2018-08-08T23:14:17.078Z,17.69
2018-08-08T23:16:45.193Z,17.71
2018-08-08T23:19:13.274Z,17.73
2018-08-08T23:21:41.368Z,17.71
2018-08-08T23:24:09.440Z,17.77
2018-08-08T23:26:37.651Z,17.73
2018-08-08T23:29:05.841Z,17.70
2018-08-08T23:31:34.072Z,17.68
2018-08-08T23:34:02.201Z,17.62
2018-08-08T23:36:30.319Z,17.63
2018-08-08T23:38:58.363Z,17.62
2018-08-08T23:41:26.431Z,17.57
2018-08-08T23:43:54.481Z,17.58
2018-08-08T23:46:22.527Z,17.56
2018-08-08T23:48:50.647Z,17.47
2018-08-08T23:51:18.731Z,17.46
2018-08-08T23:53:46.801Z,17.36
2018-08-08T23:56:14.886Z,17.36
2018-08-08T23:58:42.958Z,17.32
